Ontonagon, Michigan
Current Conditions -  °F | °C
As of 8:53 PM on Friday 28 Nov 2014 (Local Time) from KCMX Reporting Station
Overcast Overcast  
Wind Chill: 10°   Ceiling: 3700
Heat Index: 19°   Visibility: 10mi
Dew Point: 12°   Wind: 7mph
Humidity: 74%   Direction: 130°SE
Pressure: 29.88"   Gusts: NA
Location:  46.87°N, 89.31°W
Report Text: KCMX 290153Z AUTO 13006KT 10SM FEW014 BKN037 OVC050 M07/M11 A2988 RMK AO2 SLP140 T10721111
Loading
Personal Weather Stations






























Interactive Weather Map New forecast layout! Learn more

10-Day Weather Forecast

Advertisements
Track Severe Weather on mobile